< < Back
Terminal Aerodrome Forecast


Current Version              Previous Versions:   1  2  3  4  5  6  7  8  9  

Terminal Aerodrome Forecast

921
FTUS44 KBMX 071720
TAFBHM
TAF
KBHM 071720Z 0718/0818 32009KT P6SM SCT250
     FM072200 25006KT P6SM SCT250
     FM080900 22004KT P6SM BKN040 BKN150
     FM081500 28013G20KT P6SM BKN050=

Latest METAR

321
SAUS70 KWBC 072300 RRI
MTRBHM
METAR KBHM 072253Z 28008KT 10SM FEW250 13/M06 A3005 RMK AO2 SLP177
T01281061


USA.gov is the U.S. government's official web portal to all federal, state and local government web resources and services.